Time;durP1;ratioP1;P1;durP2;ratioP2;P2;SDS_P1;SDS_P2;PMS_P1;PMS_P2;Temp;Humidity;BMP_temperature;BMP_pressure;BME280_temperature;BME280_humidity;BME280_pressure;Samples;Min_cycle;Max_cycle;Signal;HPM_P1;HPM_P2
2021/11/03 00:01:34;;;;;;;41.67;28.03;;;8.50;99.90;;;;;;5057547;28;20206;-66
2021/11/03 00:04:02;;;;;;;45.27;29.77;;;8.50;99.90;;;;;;5057835;28;20651;-66
2021/11/03 00:06:29;;;;;;;44.77;29.40;;;8.50;99.90;;;;;;5054447;28;20213;-66
2021/11/03 00:08:59;;;;;;;42.13;28.80;;;8.60;99.90;;;;;;5059652;28;20202;-67
2021/11/03 00:11:27;;;;;;;46.50;30.30;;;8.60;99.90;;;;;;5053271;28;20540;-67
2021/11/03 00:13:54;;;;;;;43.17;28.20;;;8.60;99.90;;;;;;5053499;28;20222;-66
2021/11/03 00:16:21;;;;;;;38.47;27.70;;;8.60;99.90;;;;;;5052786;28;20237;-66
2021/11/03 00:18:48;;;;;;;41.27;28.23;;;8.60;99.90;;;;;;5061937;28;20618;-68
2021/11/03 00:21:15;;;;;;;42.80;28.60;;;8.60;99.90;;;;;;5071423;28;20634;-67
2021/11/03 00:23:42;;;;;;;39.60;26.87;;;8.70;99.90;;;;;;5055381;28;20301;-67
2021/11/03 00:26:09;;;;;;;41.47;27.60;;;8.70;99.90;;;;;;5053418;28;20714;-67
2021/11/03 00:28:37;;;;;;;39.67;27.23;;;8.70;99.90;;;;;;5054023;28;20194;-67
2021/11/03 00:31:04;;;;;;;42.30;28.23;;;8.70;99.90;;;;;;5053541;28;20202;-67
2021/11/03 00:33:33;;;;;;;39.67;26.77;;;8.70;99.90;;;;;;5053146;28;20206;-67
2021/11/03 00:36:00;;;;;;;41.13;26.80;;;8.70;99.90;;;;;;5052167;28;20686;-67
2021/11/03 00:38:28;;;;;;;40.03;27.70;;;8.80;99.90;;;;;;5054704;28;20220;-68
2021/11/03 00:40:55;;;;;;;39.57;25.50;;;8.90;99.90;;;;;;5038834;28;20210;-67
2021/11/03 00:43:23;;;;;;;38.40;27.10;;;8.80;99.90;;;;;;5053203;28;20216;-67
2021/11/03 00:45:51;;;;;;;41.77;26.43;;;8.80;99.90;;;;;;5054510;28;20220;-66
2021/11/03 00:48:19;;;;;;;39.57;26.80;;;8.90;99.90;;;;;;5059223;28;20617;-66
2021/11/03 00:50:46;;;;;;;38.20;26.43;;;8.90;99.90;;;;;;5057186;28;20369;-67
2021/11/03 00:53:13;;;;;;;38.53;25.80;;;8.90;99.90;;;;;;5057429;28;20688;-67
2021/11/03 00:55:41;;;;;;;36.47;25.00;;;9.00;99.90;;;;;;5057092;28;20221;-67
2021/11/03 00:58:08;;;;;;;37.17;24.47;;;9.00;99.90;;;;;;5062930;28;20197;-66
2021/11/03 01:00:36;;;;;;;40.93;25.33;;;9.00;99.90;;;;;;5056665;28;20546;-67
2021/11/03 01:03:05;;;;;;;35.83;24.37;;;9.00;99.90;;;;;;5057315;28;20639;-67
2021/11/03 01:05:37;;;;;;;32.97;23.93;;;9.10;99.90;;;;;;5056836;28;20216;-67
2021/11/03 01:08:05;;;;;;;37.90;24.40;;;9.10;99.90;;;;;;5057163;28;20206;-66
2021/11/03 01:10:32;;;;;;;35.77;24.03;;;9.10;99.90;;;;;;5057489;28;20243;-67
2021/11/03 01:12:59;;;;;;;35.40;23.43;;;9.20;99.90;;;;;;5056977;28;20210;-67
2021/11/03 01:15:27;;;;;;;32.03;22.90;;;9.10;99.90;;;;;;5062000;28;20225;-67
2021/11/03 01:17:55;;;;;;;35.07;23.87;;;9.10;99.90;;;;;;5064344;28;20659;-66
2021/11/03 01:20:25;;;;;;;35.33;23.53;;;9.20;99.90;;;;;;5057145;28;20206;-67
2021/11/03 01:22:52;;;;;;;34.37;23.07;;;9.20;99.90;;;;;;5057092;28;20210;-68
2021/11/03 01:25:19;;;;;;;31.87;21.67;;;9.20;99.90;;;;;;5057599;28;20206;-68
2021/11/03 01:27:46;;;;;;;29.50;21.17;;;9.20;99.90;;;;;;5057720;28;20721;-68
2021/11/03 01:30:16;;;;;;;32.43;21.60;;;9.20;99.90;;;;;;5056719;28;20222;-67
2021/11/03 01:32:43;;;;;;;32.43;21.50;;;9.20;99.90;;;;;;5065033;28;20214;-67
2021/11/03 01:35:11;;;;;;;30.50;20.80;;;9.20;99.90;;;;;;5058099;28;20264;-68
2021/11/03 01:37:39;;;;;;;28.97;20.03;;;9.20;99.90;;;;;;5057489;28;20218;-66
2021/11/03 01:40:09;;;;;;;28.57;20.60;;;9.20;99.90;;;;;;5056006;28;20659;-68
2021/11/03 01:42:36;;;;;;;29.03;20.43;;;9.20;99.90;;;;;;5056918;28;20202;-68
2021/11/03 01:45:05;;;;;;;28.77;19.60;;;9.20;99.90;;;;;;5056309;28;20237;-67
2021/11/03 01:47:48;;;;;;;26.63;19.10;;;9.20;99.90;;;;;;5057589;28;20305;-68
2021/11/03 01:50:22;;;;;;;29.37;19.20;;;9.10;99.90;;;;;;5062307;28;20202;-68
2021/11/03 01:52:55;;;;;;;26.30;18.60;;;9.10;99.90;;;;;;5056528;28;20204;-67
2021/11/03 01:55:22;;;;;;;27.07;18.97;;;9.10;99.90;;;;;;5065927;28;20222;-67
2021/11/03 01:57:53;;;;;;;26.47;19.30;;;9.10;99.90;;;;;;5065540;28;20239;-67
2021/11/03 02:00:24;;;;;;;25.63;18.30;;;9.10;99.90;;;;;;5056115;28;20655;-68
2021/11/03 02:02:55;;;;;;;22.73;16.57;;;9.10;99.90;;;;;;5056319;28;20213;-67
2021/11/03 02:05:22;;;;;;;23.37;17.43;;;9.10;99.90;;;;;;5056596;28;20203;-67
2021/11/03 02:07:52;;;;;;;22.47;16.40;;;9.10;99.90;;;;;;5043217;28;20517;-67
2021/11/03 02:10:19;;;;;;;24.23;17.40;;;9.10;99.90;;;;;;5048298;28;20210;-67
2021/11/03 02:12:46;;;;;;;24.33;16.63;;;9.10;99.90;;;;;;5056374;28;20355;-67
2021/11/03 02:15:15;;;;;;;22.53;17.37;;;9.10;99.90;;;;;;5052219;28;20221;-67
2021/11/03 02:17:43;;;;;;;23.83;17.50;;;9.10;99.90;;;;;;5055638;28;20209;-68
2021/11/03 02:20:13;;;;;;;24.03;17.37;;;9.20;99.90;;;;;;5058542;28;20202;-68
2021/11/03 02:22:47;;;;;;;30.87;18.10;;;9.20;99.90;;;;;;5055837;28;20292;-67
2021/11/03 02:25:18;;;;;;;24.33;17.97;;;9.10;99.90;;;;;;5054779;28;20194;-67
2021/11/03 02:27:49;;;;;;;23.07;17.07;;;9.20;99.90;;;;;;5055774;28;20201;-67
2021/11/03 02:30:17;;;;;;;26.27;18.20;;;9.10;99.90;;;;;;5055153;28;20244;-67
2021/11/03 02:32:44;;;;;;;22.40;16.47;;;9.20;99.90;;;;;;5056238;28;20213;-68
2021/11/03 02:35:13;;;;;;;25.30;18.00;;;9.10;99.90;;;;;;5055127;28;20229;-67
2021/11/03 02:37:44;;;;;;;27.10;18.53;;;9.10;99.90;;;;;;5055308;28;20213;-67
2021/11/03 02:40:36;;;;;;;26.63;18.17;;;9.10;99.90;;;;;;5055137;28;20206;-67
2021/11/03 02:43:08;;;;;;;28.47;18.53;;;9.10;99.90;;;;;;5049609;28;20292;-67
2021/11/03 02:45:41;;;;;;;25.57;18.27;;;9.10;99.90;;;;;;5054100;28;20335;-67
2021/11/03 02:48:09;;;;;;;24.93;17.90;;;9.10;99.90;;;;;;5055035;28;20209;-67
2021/11/03 02:50:36;;;;;;;23.83;17.30;;;9.00;99.90;;;;;;5055227;28;20206;-67
2021/11/03 02:53:03;;;;;;;24.83;18.07;;;9.00;99.90;;;;;;5054666;28;20544;-67
2021/11/03 02:55:30;;;;;;;27.07;18.63;;;9.00;99.90;;;;;;5055516;28;20251;-68
2021/11/03 02:57:58;;;;;;;25.90;19.13;;;9.10;99.90;;;;;;5054934;28;20595;-67
2021/11/03 03:00:25;;;;;;;25.97;17.50;;;9.10;99.90;;;;;;5055925;28;20738;-68
2021/11/03 03:02:53;;;;;;;26.87;17.80;;;9.10;99.90;;;;;;5054429;28;20213;-66
2021/11/03 03:05:21;;;;;;;24.37;17.60;;;9.10;99.90;;;;;;5054741;28;20198;-67
2021/11/03 03:07:49;;;;;;;24.03;17.07;;;9.10;99.90;;;;;;5054599;28;20748;-66
2021/11/03 03:10:17;;;;;;;24.23;17.80;;;9.10;99.90;;;;;;5052502;28;20210;-67
2021/11/03 03:12:44;;;;;;;27.73;18.20;;;9.00;99.90;;;;;;5053857;28;20205;-67
2021/11/03 03:15:13;;;;;;;27.47;18.77;;;9.00;99.90;;;;;;5054139;28;20490;-67
2021/11/03 03:17:39;;;;;;;23.80;18.63;;;9.10;99.90;;;;;;5054654;28;20202;-67
2021/11/03 03:20:08;;;;;;;27.10;18.53;;;9.00;99.90;;;;;;5054561;28;20714;-67
2021/11/03 03:22:35;;;;;;;25.50;17.90;;;9.10;99.90;;;;;;5057781;28;20217;-67
2021/11/03 03:25:01;;;;;;;25.03;18.20;;;9.00;99.90;;;;;;5040009;28;20217;-67
2021/11/03 03:27:28;;;;;;;23.57;17.63;;;9.00;99.90;;;;;;5054789;28;20212;-68
2021/11/03 03:29:55;;;;;;;26.37;18.27;;;9.00;99.90;;;;;;5053898;28;20784;-66
2021/11/03 03:32:23;;;;;;;25.57;17.73;;;9.00;99.90;;;;;;5060865;28;20220;-67
2021/11/03 03:34:50;;;;;;;24.10;17.53;;;9.00;99.90;;;;;;5053842;28;20269;-67
2021/11/03 03:37:17;;;;;;;25.57;17.37;;;9.00;99.90;;;;;;5054807;28;20198;-67
2021/11/03 03:39:46;;;;;;;23.17;16.23;;;9.00;99.90;;;;;;5053860;28;20208;-67
2021/11/03 03:42:16;;;;;;;27.60;18.73;;;9.00;99.90;;;;;;5063421;28;20604;-68
2021/11/03 03:44:43;;;;;;;22.97;17.20;;;9.00;99.90;;;;;;5054154;28;20210;-67
2021/11/03 03:47:11;;;;;;;23.80;17.33;;;9.00;99.90;;;;;;5060432;28;20209;-67
2021/11/03 03:49:39;;;;;;;26.37;17.17;;;9.10;99.90;;;;;;5045583;28;20216;-66
2021/11/03 03:52:07;;;;;;;24.13;17.93;;;9.10;99.90;;;;;;5055600;28;20206;-68
2021/11/03 03:54:34;;;;;;;24.00;17.27;;;9.10;99.90;;;;;;5052712;28;20208;-68
2021/11/03 03:57:00;;;;;;;26.23;17.73;;;9.10;99.90;;;;;;5053849;28;20308;-67
2021/11/03 03:59:27;;;;;;;25.87;17.43;;;9.00;99.90;;;;;;5053322;28;20293;-66
2021/11/03 04:01:54;;;;;;;24.17;18.00;;;9.00;99.90;;;;;;5057243;28;20677;-67
2021/11/03 04:04:21;;;;;;;22.03;17.17;;;9.10;99.90;;;;;;5054032;28;20297;-67
2021/11/03 04:06:49;;;;;;;23.07;17.80;;;9.10;99.90;;;;;;5053968;28;20194;-67
2021/11/03 04:09:16;;;;;;;23.43;16.30;;;9.10;99.90;;;;;;5053834;28;20212;-67
2021/11/03 04:11:43;;;;;;;24.10;17.53;;;9.00;99.90;;;;;;5060420;28;20216;-67
2021/11/03 04:14:10;;;;;;;23.87;17.30;;;9.00;99.90;;;;;;5059230;28;20288;-67
2021/11/03 04:16:37;;;;;;;23.33;17.47;;;9.00;99.90;;;;;;5067174;28;20221;-67
2021/11/03 04:19:04;;;;;;;24.23;17.57;;;9.00;99.90;;;;;;5054103;28;20206;-67
2021/11/03 04:21:31;;;;;;;25.13;18.60;;;9.00;99.90;;;;;;5053380;28;20206;-69
2021/11/03 04:24:00;;;;;;;25.43;17.93;;;9.00;99.90;;;;;;5053281;28;20566;-68
2021/11/03 04:26:30;;;;;;;26.90;17.63;;;9.10;99.90;;;;;;5053285;28;20229;-68
2021/11/03 04:28:57;;;;;;;24.60;17.30;;;9.00;99.90;;;;;;5052789;28;20244;-67
2021/11/03 04:31:25;;;;;;;23.30;16.90;;;9.00;99.90;;;;;;5062526;28;20240;-68
2021/11/03 04:33:52;;;;;;;25.83;17.20;;;9.00;99.90;;;;;;5055496;28;20212;-67
2021/11/03 04:36:19;;;;;;;27.60;18.27;;;9.00;99.90;;;;;;5052993;28;20575;-68
2021/11/03 04:38:46;;;;;;;25.33;18.60;;;9.00;99.90;;;;;;5053032;28;20671;-67
2021/11/03 04:41:15;;;;;;;25.03;17.87;;;9.10;99.90;;;;;;5060605;28;20209;-68
2021/11/03 04:43:42;;;;;;;25.70;18.43;;;9.00;99.90;;;;;;5063959;28;20214;-67
2021/11/03 04:46:09;;;;;;;23.37;16.83;;;9.00;99.90;;;;;;5055667;28;20202;-67
2021/11/03 04:48:36;;;;;;;24.83;17.57;;;9.00;99.90;;;;;;5053150;28;20197;-68
2021/11/03 04:51:03;;;;;;;23.33;17.47;;;9.10;99.90;;;;;;5060123;28;20205;-68
2021/11/03 04:53:31;;;;;;;24.60;18.43;;;9.10;99.90;;;;;;5052704;28;20209;-68
2021/11/03 04:55:59;;;;;;;25.23;18.13;;;9.10;99.90;;;;;;5061885;28;20217;-68
2021/11/03 04:58:28;;;;;;;25.50;16.97;;;9.10;99.90;;;;;;5038404;28;20249;-67
2021/11/03 05:00:55;;;;;;;26.57;17.13;;;9.20;99.90;;;;;;5053300;28;20214;-66
2021/11/03 05:03:22;;;;;;;23.13;17.17;;;9.10;99.90;;;;;;5052410;28;20210;-67
2021/11/03 05:05:51;;;;;;;27.30;17.07;;;9.10;99.90;;;;;;5052834;28;20202;-66
2021/11/03 05:08:19;;;;;;;25.47;17.90;;;9.10;99.90;;;;;;5051179;28;20241;-67
2021/11/03 05:10:45;;;;;;;23.13;17.07;;;9.10;99.90;;;;;;5060632;28;20209;-67
2021/11/03 05:13:12;;;;;;;21.90;16.83;;;9.10;99.90;;;;;;5056856;28;20233;-66
2021/11/03 05:15:41;;;;;;;26.83;17.33;;;9.00;99.90;;;;;;5053425;28;20312;-67
2021/11/03 05:18:08;;;;;;;23.80;17.37;;;9.00;99.90;;;;;;5051581;28;20210;-68
2021/11/03 05:20:35;;;;;;;23.97;17.20;;;9.10;99.90;;;;;;5052614;28;20220;-68
2021/11/03 05:23:02;;;;;;;26.03;17.43;;;9.00;99.90;;;;;;5058875;28;20206;-66
2021/11/03 05:25:29;;;;;;;24.23;16.60;;;9.00;99.90;;;;;;5066418;28;20219;-67
2021/11/03 05:27:57;;;;;;;23.97;16.43;;;9.00;99.90;;;;;;5062253;28;20210;-68
2021/11/03 05:30:25;;;;;;;23.23;17.60;;;9.00;99.90;;;;;;5059471;28;20241;-67
2021/11/03 05:32:55;;;;;;;23.00;16.10;;;9.00;99.90;;;;;;5054658;28;20296;-67
2021/11/03 05:35:22;;;;;;;24.30;17.30;;;9.00;99.90;;;;;;5056916;28;20206;-69
2021/11/03 05:37:49;;;;;;;23.40;17.17;;;8.90;99.90;;;;;;5056162;28;20296;-67
2021/11/03 05:40:19;;;;;;;22.87;16.90;;;8.90;99.90;;;;;;5056577;28;20627;-66
2021/11/03 05:42:46;;;;;;;22.67;17.00;;;8.90;99.90;;;;;;5056174;28;20216;-67
2021/11/03 05:45:13;;;;;;;24.40;17.10;;;8.90;99.90;;;;;;5064037;28;20201;-68
2021/11/03 05:47:40;;;;;;;24.40;16.53;;;8.90;99.90;;;;;;5056133;28;20202;-67
2021/11/03 05:50:14;;;;;;;25.83;17.07;;;8.90;99.90;;;;;;5056850;28;20722;-66
2021/11/03 05:52:41;;;;;;;25.33;16.17;;;8.90;99.90;;;;;;5069049;28;20700;-67
2021/11/03 05:55:08;;;;;;;24.07;17.30;;;8.90;99.90;;;;;;5055674;28;20206;-67
2021/11/03 05:57:36;;;;;;;24.87;17.47;;;8.90;99.90;;;;;;5061480;28;20256;-66
2021/11/03 06:00:09;;;;;;;21.30;17.07;;;8.90;99.90;;;;;;5054720;28;20205;-68
2021/11/03 06:02:36;;;;;;;24.23;16.73;;;8.90;99.90;;;;;;5049941;28;20205;-68
2021/11/03 06:05:02;;;;;;;24.17;17.53;;;8.90;99.90;;;;;;5056710;28;20205;-71
2021/11/03 06:07:31;;;;;;;23.70;16.83;;;8.90;99.90;;;;;;5056338;28;20204;-67
2021/11/03 06:10:04;;;;;;;23.87;16.47;;;8.90;99.90;;;;;;5061983;28;20293;-68
2021/11/03 06:12:31;;;;;;;25.20;16.57;;;8.80;99.90;;;;;;5063993;28;20292;-71
2021/11/03 06:14:57;;;;;;;23.67;16.37;;;8.80;99.90;;;;;;5056969;28;20270;-72
2021/11/03 06:17:24;;;;;;;24.97;16.97;;;8.90;99.90;;;;;;5057462;28;20293;-71
2021/11/03 06:19:52;;;;;;;24.77;16.40;;;8.80;99.90;;;;;;5051384;28;20202;-70
2021/11/03 06:22:18;;;;;;;23.60;16.37;;;8.90;99.90;;;;;;5056067;28;20196;-70
2021/11/03 06:24:49;;;;;;;24.33;17.27;;;8.90;99.90;;;;;;5048463;28;20220;-71
2021/11/03 06:27:16;;;;;;;22.83;17.00;;;8.90;99.90;;;;;;5056894;28;20620;-71
2021/11/03 06:29:43;;;;;;;23.77;16.07;;;8.90;99.90;;;;;;5056402;28;20233;-70
2021/11/03 06:32:10;;;;;;;23.57;16.47;;;8.90;99.90;;;;;;5056241;28;20233;-70
2021/11/03 06:34:37;;;;;;;23.53;16.43;;;9.00;99.90;;;;;;5054453;28;20217;-70
2021/11/03 06:37:04;;;;;;;25.93;17.47;;;9.00;99.90;;;;;;5053696;28;20225;-70
2021/11/03 06:39:32;;;;;;;22.90;16.13;;;9.00;99.90;;;;;;5053251;28;20236;-68
2021/11/03 06:42:00;;;;;;;22.93;15.77;;;9.10;99.90;;;;;;5054212;28;20202;-68
2021/11/03 06:44:27;;;;;;;23.90;17.03;;;9.10;99.90;;;;;;5053151;28;20301;-68
2021/11/03 06:46:54;;;;;;;23.27;15.60;;;9.10;99.90;;;;;;5050343;28;20204;-68
2021/11/03 06:49:21;;;;;;;20.27;14.03;;;9.20;99.90;;;;;;5054939;28;20255;-68
2021/11/03 06:51:48;;;;;;;21.40;14.50;;;9.20;99.90;;;;;;5053545;28;20209;-69
2021/11/03 06:54:15;;;;;;;22.53;13.73;;;9.20;99.90;;;;;;5052724;28;20427;-69
2021/11/03 06:56:42;;;;;;;21.13;15.70;;;9.10;99.90;;;;;;5053570;28;20312;-69
2021/11/03 06:59:10;;;;;;;21.97;16.10;;;9.20;99.90;;;;;;5054235;28;20313;-68
2021/11/03 07:01:37;;;;;;;22.53;15.53;;;9.10;99.90;;;;;;5054751;28;20288;-68
2021/11/03 07:04:05;;;;;;;23.10;15.87;;;9.20;99.90;;;;;;5054007;28;20244;-68
2021/11/03 07:06:32;;;;;;;24.07;16.10;;;9.20;99.90;;;;;;5053198;28;20202;-68
2021/11/03 07:08:59;;;;;;;21.10;15.23;;;9.20;99.90;;;;;;5045763;28;20221;-68
2021/11/03 07:11:28;;;;;;;20.63;14.80;;;9.30;99.90;;;;;;5052817;28;20324;-69
2021/11/03 07:13:55;;;;;;;22.03;14.83;;;9.40;99.90;;;;;;5052928;28;20209;-67
2021/11/03 07:16:24;;;;;;;21.33;15.00;;;9.50;99.90;;;;;;5051532;28;20226;-68
2021/11/03 07:18:51;;;;;;;23.40;15.13;;;9.50;99.90;;;;;;5053119;28;20212;-67
2021/11/03 07:21:18;;;;;;;22.30;15.03;;;9.60;99.90;;;;;;5052945;28;20252;-68
2021/11/03 07:23:45;;;;;;;24.03;15.37;;;9.70;99.90;;;;;;5053317;28;20207;-68
2021/11/03 07:26:13;;;;;;;22.03;14.80;;;9.80;99.90;;;;;;5054011;28;20275;-69
2021/11/03 07:28:40;;;;;;;24.50;16.10;;;9.80;99.90;;;;;;5045469;28;20296;-68
2021/11/03 07:31:08;;;;;;;22.00;15.63;;;9.80;99.90;;;;;;5053281;28;20209;-68
2021/11/03 07:33:36;;;;;;;20.63;15.73;;;9.80;99.90;;;;;;5052095;28;20233;-69
2021/11/03 07:36:04;;;;;;;25.27;17.90;;;9.70;99.90;;;;;;5053773;28;20205;-69
2021/11/03 07:38:31;;;;;;;20.70;15.00;;;9.80;99.90;;;;;;5054669;28;20206;-71
2021/11/03 07:40:58;;;;;;;23.43;15.83;;;9.70;99.90;;;;;;5053953;28;20697;-68
2021/11/03 07:43:28;;;;;;;21.37;15.73;;;9.70;99.90;;;;;;5055030;28;20214;-72
2021/11/03 07:45:57;;;;;;;24.47;16.50;;;9.70;99.90;;;;;;5052417;28;20634;-70
2021/11/03 07:48:26;;;;;;;22.53;16.10;;;9.70;99.90;;;;;;5047065;28;20292;-70
2021/11/03 07:50:57;;;;;;;20.30;15.03;;;9.70;99.90;;;;;;5062036;28;20219;-70
2021/11/03 07:53:25;;;;;;;23.30;16.20;;;9.70;99.90;;;;;;5039016;28;20580;-67
2021/11/03 07:55:57;;;;;;;22.87;15.23;;;9.70;99.90;;;;;;5061818;28;20233;-69
2021/11/03 07:58:27;;;;;;;24.80;15.43;;;9.60;99.90;;;;;;5048390;28;20198;-70
2021/11/03 08:00:55;;;;;;;22.67;15.83;;;9.60;99.90;;;;;;5053664;28;20202;-68
2021/11/03 08:03:23;;;;;;;25.40;16.20;;;9.60;99.90;;;;;;5056796;28;20672;-68
2021/11/03 08:05:52;;;;;;;26.67;17.87;;;9.60;99.90;;;;;;5064284;28;20209;-72
2021/11/03 08:08:26;;;;;;;26.67;17.20;;;9.60;99.90;;;;;;5065420;28;20213;-71
2021/11/03 08:10:54;;;;;;;29.23;18.37;;;9.60;99.90;;;;;;5053102;28;20227;-70
2021/11/03 08:13:22;;;;;;;28.87;17.43;;;9.60;99.90;;;;;;5053002;28;20202;-69
2021/11/03 08:15:51;;;;;;;29.43;18.23;;;9.60;99.90;;;;;;5057576;28;20627;-71
2021/11/03 08:18:20;;;;;;;29.87;18.73;;;9.60;99.90;;;;;;5049741;28;20225;-69
2021/11/03 08:20:47;;;;;;;29.37;18.60;;;9.50;99.90;;;;;;5051610;28;20220;-71
2021/11/03 08:23:16;;;;;;;25.87;16.93;;;9.50;99.90;;;;;;5054853;28;20212;-70
2021/11/03 08:25:44;;;;;;;29.43;18.90;;;9.60;99.90;;;;;;5053648;28;20666;-71
2021/11/03 08:28:12;;;;;;;26.87;18.50;;;9.50;99.90;;;;;;5047540;28;20201;-70
2021/11/03 08:30:40;;;;;;;28.03;17.60;;;9.60;99.90;;;;;;5056043;28;20317;-71
2021/11/03 08:33:10;;;;;;;29.10;18.23;;;9.60;99.90;;;;;;5051952;28;20301;-72
2021/11/03 08:35:39;;;;;;;27.57;18.03;;;9.60;99.90;;;;;;5053466;28;20746;-71
2021/11/03 08:38:09;;;;;;;25.50;17.47;;;9.70;99.90;;;;;;5051709;28;20708;-71
2021/11/03 08:40:37;;;;;;;28.27;17.33;;;9.80;99.90;;;;;;5051137;28;20210;-68
2021/11/03 08:43:06;;;;;;;29.67;18.03;;;9.80;99.90;;;;;;5052934;28;20208;-69
2021/11/03 08:45:33;;;;;;;32.83;18.97;;;9.80;99.90;;;;;;5052994;28;20319;-70
2021/11/03 08:48:01;;;;;;;25.57;18.17;;;9.90;99.90;;;;;;5057736;28;20513;-70
2021/11/03 08:50:30;;;;;;;26.07;18.87;;;10.00;99.90;;;;;;5052802;28;20210;-70
2021/11/03 08:52:57;;;;;;;29.40;17.60;;;10.40;99.90;;;;;;5064093;28;20220;-71
2021/11/03 08:55:25;;;;;;;26.70;17.97;;;10.60;99.90;;;;;;5052068;28;20220;-70
2021/11/03 08:57:52;;;;;;;26.07;17.80;;;10.70;99.90;;;;;;5052114;28;20232;-70
2021/11/03 09:00:25;;;;;;;24.50;16.83;;;10.80;99.90;;;;;;5051850;28;20218;-68
2021/11/03 09:02:52;;;;;;;24.00;17.03;;;10.80;99.90;;;;;;5060982;28;20205;-71
2021/11/03 09:05:19;;;;;;;24.47;17.27;;;10.70;99.90;;;;;;5051525;28;20214;-70
2021/11/03 09:07:46;;;;;;;24.73;17.80;;;10.70;99.90;;;;;;5054960;28;20208;-70
2021/11/03 09:10:17;;;;;;;33.07;19.50;;;10.60;99.90;;;;;;5056221;28;20216;-70
2021/11/03 09:12:44;;;;;;;28.50;17.53;;;10.50;99.90;;;;;;5057614;28;20305;-69
2021/11/03 09:15:12;;;;;;;26.63;17.47;;;10.40;99.90;;;;;;5057025;28;21617;-71
2021/11/03 09:17:40;;;;;;;25.43;16.70;;;10.40;99.90;;;;;;5060169;28;20221;-70
2021/11/03 09:20:09;;;;;;;24.93;16.87;;;10.40;99.90;;;;;;5055295;28;20296;-69
2021/11/03 09:22:39;;;;;;;27.33;19.10;;;10.40;99.90;;;;;;5061746;28;20214;-70
2021/11/03 09:25:08;;;;;;;26.53;18.23;;;10.40;99.90;;;;;;5054087;28;20516;-69
2021/11/03 09:27:35;;;;;;;27.23;17.70;;;10.30;99.90;;;;;;5055306;28;20260;-68
2021/11/03 09:30:03;;;;;;;26.83;18.17;;;10.30;99.90;;;;;;5054251;28;20324;-68
2021/11/03 09:32:34;;;;;;;26.13;18.33;;;10.30;99.90;;;;;;5054971;28;20455;-69
2021/11/03 09:35:03;;;;;;;27.97;18.50;;;10.30;99.90;;;;;;5055147;28;20290;-69
2021/11/03 09:37:33;;;;;;;27.60;18.50;;;10.30;99.90;;;;;;5055835;28;20221;-70
2021/11/03 09:40:00;;;;;;;26.13;19.10;;;10.30;99.90;;;;;;5054718;28;20297;-68
2021/11/03 09:42:28;;;;;;;22.93;16.47;;;10.30;99.90;;;;;;5060909;28;20210;-70
2021/11/03 09:44:57;;;;;;;23.37;17.20;;;10.30;99.90;;;;;;5056280;28;20198;-70
2021/11/03 09:47:26;;;;;;;23.83;17.90;;;10.30;99.90;;;;;;5054653;28;20656;-69
2021/11/03 09:50:00;;;;;;;24.23;18.67;;;10.30;99.90;;;;;;5053890;28;20298;-72
2021/11/03 09:52:34;;;;;;;26.93;19.33;;;10.30;99.90;;;;;;5049869;28;20214;-70
2021/11/03 09:55:17;;;;;;;28.00;19.20;;;10.40;99.90;;;;;;5055297;28;20742;-69
2021/11/03 09:57:51;;;;;;;27.40;19.27;;;10.40;99.90;;;;;;5053334;28;20330;-70
2021/11/03 10:00:26;;;;;;;27.20;18.50;;;10.50;99.90;;;;;;5053317;28;20678;-69
2021/11/03 10:03:10;;;;;;;29.27;18.53;;;10.50;99.90;;;;;;5051250;28;20713;-68
2021/11/03 10:05:47;;;;;;;25.67;19.30;;;10.50;99.90;;;;;;5050967;28;20206;-67
2021/11/03 10:08:17;;;;;;;23.67;18.10;;;10.50;99.90;;;;;;5055082;28;20403;-68
2021/11/03 10:10:56;;;;;;;23.50;17.27;;;10.40;99.90;;;;;;5051200;28;21437;-67
2021/11/03 10:13:30;;;;;;;21.67;16.97;;;10.40;99.90;;;;;;5052544;28;20210;-70
2021/11/03 10:16:00;;;;;;;23.60;17.23;;;10.40;99.90;;;;;;5053988;28;20669;-68
2021/11/03 10:18:31;;;;;;;20.73;17.60;;;10.40;99.90;;;;;;5053037;28;20229;-67
2021/11/03 10:21:13;;;;;;;21.43;17.00;;;10.30;99.90;;;;;;5053124;28;20527;-67
2021/11/03 10:23:52;;;;;;;24.77;16.77;;;10.30;99.90;;;;;;5055227;28;20202;-67
2021/11/03 10:26:20;;;;;;;25.17;18.40;;;10.30;99.90;;;;;;5051995;28;20319;-66
2021/11/03 10:28:51;;;;;;;24.60;17.80;;;10.30;99.90;;;;;;5056353;28;20198;-68
2021/11/03 10:31:28;;;;;;;24.67;17.83;;;10.40;99.90;;;;;;5057734;28;20213;-68
2021/11/03 10:34:05;;;;;;;26.90;18.40;;;10.40;99.90;;;;;;5052982;28;20197;-68
2021/11/03 10:36:40;;;;;;;24.73;17.80;;;10.50;99.90;;;;;;5055000;28;20932;-68
2021/11/03 10:39:16;;;;;;;21.93;17.63;;;10.60;99.90;;;;;;5052451;28;20374;-68
2021/11/03 10:41:43;;;;;;;28.20;17.07;;;10.70;99.90;;;;;;5040643;28;20206;-70
2021/11/03 10:44:21;;;;;;;22.30;17.40;;;10.70;99.90;;;;;;5039257;28;20199;-70
2021/11/03 10:46:54;;;;;;;23.67;16.53;;;10.90;99.90;;;;;;5045087;28;20266;-69
2021/11/03 10:49:31;;;;;;;22.27;16.40;;;11.30;99.90;;;;;;5040058;28;20203;-69
2021/11/03 10:52:01;;;;;;;22.17;15.73;;;12.00;99.90;;;;;;5042100;28;20214;-69
2021/11/03 10:54:44;;;;;;;19.07;14.90;;;13.60;99.90;;;;;;5044626;28;20236;-69
2021/11/03 10:57:20;;;;;;;19.33;14.50;;;15.50;99.90;;;;;;5048115;28;20695;-70
2021/11/03 10:59:50;;;;;;;19.77;14.70;;;18.20;99.90;;;;;;5043749;28;20222;-72
2021/11/03 11:02:24;;;;;;;14.48;12.07;;;21.40;99.90;;;;;;5051272;28;20214;-72
2021/11/03 11:04:52;;;;;;;16.42;12.75;;;23.90;88.20;;;;;;5042027;28;20214;-72
2021/11/03 11:07:26;;;;;;;17.50;12.68;;;24.40;74.00;;;;;;5054376;28;20540;-73
2021/11/03 11:10:05;;;;;;;16.75;13.00;;;23.90;68.30;;;;;;5047486;28;20288;-73
2021/11/03 11:12:34;;;;;;;13.75;12.32;;;23.00;68.40;;;;;;5041740;28;20201;-73
2021/11/03 11:15:18;;;;;;;18.05;13.70;;;22.90;71.30;;;;;;5049093;28;20214;-73
2021/11/03 11:17:49;;;;;;;18.02;13.52;;;22.90;69.90;;;;;;5054271;28;20217;-73
2021/11/03 11:20:23;;;;;;;16.33;12.02;;;22.70;76.10;;;;;;5053450;28;20206;-73
2021/11/03 11:23:05;;;;;;;16.70;13.73;;;23.20;68.40;;;;;;5054321;28;20292;-72
2021/11/03 11:25:41;;;;;;;15.07;12.95;;;24.00;70.00;;;;;;5056344;28;20208;-74
2021/11/03 11:28:24;;;;;;;13.52;11.73;;;26.20;63.20;;;;;;5061389;28;20296;-74
2021/11/03 11:30:57;;;;;;;13.23;11.93;;;27.30;57.30;;;;;;5055632;28;20244;-74
2021/11/03 11:33:27;;;;;;;15.70;13.25;;;28.50;55.20;;;;;;5055288;28;20228;-73
2021/11/03 11:36:08;;;;;;;15.15;12.70;;;28.20;50.60;;;;;;5060165;28;20649;-74
2021/11/03 11:38:49;;;;;;;13.93;12.27;;;26.90;50.80;;;;;;5060078;28;20309;-74
2021/11/03 11:41:21;;;;;;;17.98;12.40;;;25.60;55.40;;;;;;5058454;28;20296;-73
2021/11/03 11:43:53;;;;;;;13.65;11.98;;;25.70;55.90;;;;;;5056401;28;20298;-74
2021/11/03 11:46:23;;;;;;;16.63;12.23;;;25.30;53.60;;;;;;5056868;28;20275;-74
2021/11/03 11:48:53;;;;;;;14.15;12.10;;;24.30;54.40;;;;;;5054688;28;20209;-73
2021/11/03 11:51:26;;;;;;;15.80;11.85;;;23.40;55.70;;;;;;5053225;28;20823;-73
2021/11/03 11:54:28;;;;;;;14.60;11.25;;;22.40;57.60;;;;;;5055218;28;20237;-73
2021/11/03 11:57:24;;;;;;;15.00;11.38;;;21.40;59.30;;;;;;5061280;28;20225;-73
2021/11/03 12:00:23;;;;;;;15.27;10.77;;;20.40;60.90;;;;;;5053006;28;20252;-75
2021/11/03 12:03:15;;;;;;;13.10;10.60;;;19.50;63.00;;;;;;5054367;28;20293;-72
2021/11/03 12:05:51;;;;;;;14.27;10.07;;;18.60;66.60;;;;;;5043684;28;20626;-73
2021/11/03 12:08:22;;;;;;;12.73;8.93;;;18.20;68.90;;;;;;5054307;28;20208;-73
2021/11/03 12:11:15;;;;;;;10.48;8.38;;;17.90;69.90;;;;;;5053880;28;20202;-73
2021/11/03 12:14:24;;;;;;;11.88;8.35;;;17.60;70.10;;;;;;5053942;28;20288;-73
2021/11/03 12:17:00;;;;;;;15.00;9.10;;;17.20;70.30;;;;;;5064480;28;20205;-71
2021/11/03 12:19:49;;;;;;;9.87;8.43;;;17.00;72.00;;;;;;5052516;28;20299;-70
2021/11/03 12:22:52;;;;;;;9.97;8.70;;;16.80;72.70;;;;;;5039762;28;20652;-71
2021/11/03 12:25:46;;;;;;;11.53;8.57;;;16.70;73.20;;;;;;5049368;28;20284;-72
2021/11/03 12:28:34;;;;;;;9.00;7.90;;;16.40;73.70;;;;;;5053696;28;20234;-71
2021/11/03 12:31:17;;;;;;;12.77;8.63;;;16.10;74.80;;;;;;5049014;28;20352;-71
2021/11/03 12:34:17;;;;;;;9.27;7.43;;;16.00;75.90;;;;;;5050795;28;20202;-71
2021/11/03 12:36:56;;;;;;;11.30;7.23;;;15.80;76.40;;;;;;5053474;28;20294;-70
2021/11/03 12:39:50;;;;;;;9.83;7.40;;;15.70;76.40;;;;;;5039603;28;20220;-70
2021/11/03 12:42:31;;;;;;;10.00;7.87;;;15.50;77.30;;;;;;5054038;28;20256;-71
2021/11/03 12:45:12;;;;;;;10.77;7.17;;;15.30;77.80;;;;;;5055788;28;20220;-71
2021/11/03 12:47:50;;;;;;;11.83;7.60;;;15.20;78.50;;;;;;5052364;28;20197;-71
2021/11/03 12:50:21;;;;;;;8.93;7.33;;;15.00;79.20;;;;;;5051680;28;20208;-72
2021/11/03 12:52:51;;;;;;;9.37;7.00;;;14.90;79.90;;;;;;5050954;28;20202;-71